Time;durP1;ratioP1;P1;durP2;ratioP2;P2;SDS_P1;SDS_P2;PMS_P1;PMS_P2;Temp;Humidity;BMP_temperature;BMP_pressure;BME280_temperature;BME280_humidity;BME280_pressure;Samples;Min_cycle;Max_cycle;Signal;HPM_P1;HPM_P2
2023/04/29 00:01:47;;;;;;;1.38;1.27;;;;;;;;;;5006233;28;20207;-87
2023/04/29 00:04:16;;;;;;;1.15;1.05;;;;;;;;;;5001254;28;20268;-88
2023/04/29 00:06:44;;;;;;;1.48;1.38;;;;;;;;;;5007075;28;20239;-88
2023/04/29 00:09:11;;;;;;;1.35;1.20;;;;;;;;;;5006838;28;20207;-87
2023/04/29 00:11:39;;;;;;;1.10;1.10;;;;;;;;;;5007025;28;20205;-87
2023/04/29 00:14:06;;;;;;;1.33;1.20;;;;;;;;;;4988272;28;20216;-87
2023/04/29 00:16:33;;;;;;;1.40;1.30;;;;;;;;;;5009005;28;20307;-87
2023/04/29 00:19:01;;;;;;;3.28;1.83;;;;;;;;;;5004246;28;20292;-88
2023/04/29 00:21:30;;;;;;;1.55;1.45;;;;;;;;;;5009918;28;20201;-87
2023/04/29 00:23:58;;;;;;;1.23;1.23;;;;;;;;;;5001942;28;20197;-87
2023/04/29 00:26:25;;;;;;;2.00;1.60;;;;;;;;;;5009595;28;20209;-87
2023/04/29 00:28:52;;;;;;;1.50;1.40;;;;;;;;;;5011146;28;20217;-87
2023/04/29 00:31:20;;;;;;;1.40;1.25;;;;;;;;;;5012122;28;20295;-87
2023/04/29 00:33:47;;;;;;;1.40;1.40;;;;;;;;;;5007865;28;20232;-87
2023/04/29 00:36:15;;;;;;;2.03;1.73;;;;;;;;;;5011176;28;20213;-87
2023/04/29 00:38:44;;;;;;;2.58;1.50;;;;;;;;;;4995546;28;20224;-87
2023/04/29 00:41:11;;;;;;;1.60;1.50;;;;;;;;;;5012459;28;20209;-87
2023/04/29 00:43:38;;;;;;;2.22;1.80;;;;;;;;;;4993400;28;20248;-87
2023/04/29 00:46:06;;;;;;;2.78;1.75;;;;;;;;;;5013728;28;20279;-87
2023/04/29 00:48:33;;;;;;;5.82;2.40;;;;;;;;;;4997063;28;20208;-87
2023/04/29 00:51:01;;;;;;;2.20;2.10;;;;;;;;;;5013036;28;20292;-87
2023/04/29 00:53:28;;;;;;;2.33;2.00;;;;;;;;;;5011349;28;20201;-87
2023/04/29 00:55:57;;;;;;;2.97;2.20;;;;;;;;;;5013696;28;20216;-87
2023/04/29 00:58:31;;;;;;;3.10;2.60;;;;;;;;;;5010555;28;20220;-87
2023/04/29 01:00:59;;;;;;;2.80;2.58;;;;;;;;;;5009750;28;20211;-87
2023/04/29 01:03:26;;;;;;;2.45;2.25;;;;;;;;;;5015465;28;20220;-86
2023/04/29 01:06:00;;;;;;;2.85;2.33;;;;;;;;;;4997841;28;20203;-87
2023/04/29 01:08:32;;;;;;;2.45;2.25;;;;;;;;;;4993450;28;20221;-87
2023/04/29 01:11:06;;;;;;;2.50;2.30;;;;;;;;;;5008875;28;20205;-87
2023/04/29 01:13:36;;;;;;;2.50;2.40;;;;;;;;;;5011906;28;20220;-87
2023/04/29 01:16:04;;;;;;;3.25;2.80;;;;;;;;;;5001833;28;20224;-87
2023/04/29 01:18:34;;;;;;;3.60;3.30;;;;;;;;;;5009656;28;20217;-87
2023/04/29 01:21:01;;;;;;;3.90;3.60;;;;;;;;;;5011958;28;20201;-87
2023/04/29 01:23:30;;;;;;;3.40;3.10;;;;;;;;;;5011185;28;20209;-87
2023/04/29 01:25:58;;;;;;;6.13;3.50;;;;;;;;;;5015250;28;20213;-87
2023/04/29 01:28:35;;;;;;;4.45;4.15;;;;;;;;;;4994670;28;20212;-87
2023/04/29 01:31:08;;;;;;;3.85;3.55;;;;;;;;;;4996239;28;20201;-87
2023/04/29 01:33:40;;;;;;;5.57;4.35;;;;;;;;;;5012586;28;20293;-87
2023/04/29 01:36:11;;;;;;;4.68;4.38;;;;;;;;;;4997401;28;20229;-87
2023/04/29 01:38:45;;;;;;;5.50;4.97;;;;;;;;;;5014880;28;20212;-87
2023/04/29 01:41:15;;;;;;;4.93;4.40;;;;;;;;;;5007977;28;20200;-87
2023/04/29 01:43:44;;;;;;;4.50;4.20;;;;;;;;;;5015403;28;20243;-87
2023/04/29 01:46:11;;;;;;;5.65;5.18;;;;;;;;;;5012726;28;20213;-87
2023/04/29 01:48:39;;;;;;;6.13;5.38;;;;;;;;;;5007856;28;20297;-87
2023/04/29 01:51:06;;;;;;;5.70;5.13;;;;;;;;;;5015205;28;20232;-87
2023/04/29 01:53:33;;;;;;;6.20;5.68;;;;;;;;;;5011189;28;20207;-87
2023/04/29 01:56:02;;;;;;;5.65;5.10;;;;;;;;;;5010446;28;20201;-87
2023/04/29 01:58:29;;;;;;;5.60;5.13;;;;;;;;;;5012167;28;20243;-87
2023/04/29 02:00:57;;;;;;;6.07;5.57;;;;;;;;;;5009234;28;20291;-87
2023/04/29 02:03:24;;;;;;;5.72;5.22;;;;;;;;;;5005240;28;20206;-87
2023/04/29 02:05:51;;;;;;;5.75;5.18;;;;;;;;;;5015194;28;20208;-87
2023/04/29 02:08:19;;;;;;;6.25;5.68;;;;;;;;;;5012156;28;20217;-87
2023/04/29 02:10:53;;;;;;;4.88;4.47;;;;;;;;;;5012629;28;20211;-87
2023/04/29 02:13:21;;;;;;;5.68;5.18;;;;;;;;;;5009872;28;20207;-87
2023/04/29 02:15:49;;;;;;;5.45;4.95;;;;;;;;;;5009565;28;20223;-87
2023/04/29 02:18:16;;;;;;;6.05;5.38;;;;;;;;;;5014033;28;20225;-87
2023/04/29 02:20:44;;;;;;;5.40;5.00;;;;;;;;;;5013893;28;20212;-87
2023/04/29 02:23:11;;;;;;;6.20;5.63;;;;;;;;;;5014456;28;20204;-87
2023/04/29 02:25:38;;;;;;;5.33;4.73;;;;;;;;;;5011803;28;20208;-87
2023/04/29 02:28:06;;;;;;;6.20;5.57;;;;;;;;;;5000124;28;20221;-87
2023/04/29 02:30:34;;;;;;;5.95;5.45;;;;;;;;;;5008078;28;20205;-87
2023/04/29 02:33:02;;;;;;;5.90;5.07;;;;;;;;;;4996489;28;20201;-87
2023/04/29 02:35:29;;;;;;;6.55;5.95;;;;;;;;;;4995498;28;20205;-87
2023/04/29 02:37:57;;;;;;;6.85;5.80;;;;;;;;;;5013045;28;20213;-87
2023/04/29 02:40:25;;;;;;;6.65;6.05;;;;;;;;;;5013296;28;20296;-87
2023/04/29 02:42:53;;;;;;;5.93;5.43;;;;;;;;;;5007566;28;20240;-87
2023/04/29 02:45:21;;;;;;;6.40;5.80;;;;;;;;;;4999603;28;20212;-87
2023/04/29 02:47:50;;;;;;;6.57;5.97;;;;;;;;;;4994703;28;20255;-87
2023/04/29 02:50:17;;;;;;;5.27;4.87;;;;;;;;;;5014138;28;20200;-87
2023/04/29 02:52:45;;;;;;;6.25;5.65;;;;;;;;;;5013066;28;20269;-87
2023/04/29 02:55:12;;;;;;;6.70;5.78;;;;;;;;;;4994416;28;20212;-87
2023/04/29 02:57:40;;;;;;;7.28;6.57;;;;;;;;;;5010305;28;20221;-87
2023/04/29 03:00:08;;;;;;;7.82;7.13;;;;;;;;;;5010626;28;20209;-88
2023/04/29 03:02:35;;;;;;;6.20;5.70;;;;;;;;;;5008106;28;20217;-87
2023/04/29 03:05:04;;;;;;;6.95;6.22;;;;;;;;;;5012904;28;20203;-87
2023/04/29 03:07:31;;;;;;;8.47;7.67;;;;;;;;;;5012106;28;20208;-87
2023/04/29 03:09:59;;;;;;;8.02;6.93;;;;;;;;;;5012052;28;20209;-87
2023/04/29 03:12:26;;;;;;;7.90;7.10;;;;;;;;;;5012892;28;20239;-87
2023/04/29 03:14:54;;;;;;;7.53;6.82;;;;;;;;;;5012678;28;20288;-87
2023/04/29 03:17:21;;;;;;;6.97;6.28;;;;;;;;;;5009863;28;20227;-87
2023/04/29 03:19:48;;;;;;;7.03;6.43;;;;;;;;;;5007095;28;20211;-87
2023/04/29 03:22:17;;;;;;;6.88;6.28;;;;;;;;;;4988108;28;20217;-87
2023/04/29 03:24:44;;;;;;;7.25;6.55;;;;;;;;;;5011309;28;20304;-87
2023/04/29 03:27:12;;;;;;;9.27;7.28;;;;;;;;;;5000392;28;20212;-87
2023/04/29 03:29:39;;;;;;;6.85;6.25;;;;;;;;;;5011863;28;20205;-87
2023/04/29 03:32:06;;;;;;;6.43;5.82;;;;;;;;;;5011559;28;20212;-88
2023/04/29 03:34:34;;;;;;;6.53;5.93;;;;;;;;;;5007377;28;20201;-87
2023/04/29 03:37:01;;;;;;;6.50;5.90;;;;;;;;;;4996401;28;20224;-87
2023/04/29 03:39:31;;;;;;;8.02;7.00;;;;;;;;;;5013017;28;20219;-87
2023/04/29 03:41:59;;;;;;;6.75;6.15;;;;;;;;;;5009113;28;20298;-87
2023/04/29 03:44:28;;;;;;;6.30;5.70;;;;;;;;;;5004657;28;20220;-87
2023/04/29 03:46:55;;;;;;;7.18;6.50;;;;;;;;;;5000964;28;20205;-87
2023/04/29 03:49:22;;;;;;;7.03;6.40;;;;;;;;;;5008703;28;20207;-87
2023/04/29 03:51:49;;;;;;;7.35;6.20;;;;;;;;;;5012780;28;20213;-87
2023/04/29 03:54:17;;;;;;;7.20;6.60;;;;;;;;;;5008657;28;20209;-87
2023/04/29 03:56:45;;;;;;;9.27;8.02;;;;;;;;;;5013514;28;20209;-87
2023/04/29 03:59:13;;;;;;;7.68;6.88;;;;;;;;;;5013202;28;20211;-87
2023/04/29 04:01:40;;;;;;;7.85;7.05;;;;;;;;;;5010346;28;20211;-87
2023/04/29 04:04:07;;;;;;;7.93;7.10;;;;;;;;;;5008738;28;20204;-87
2023/04/29 04:06:34;;;;;;;9.60;8.60;;;;;;;;;;5011846;28;20208;-87
2023/04/29 04:09:02;;;;;;;7.93;7.22;;;;;;;;;;5013052;28;20206;-87
2023/04/29 04:11:29;;;;;;;8.30;7.50;;;;;;;;;;5010944;28;20219;-87
2023/04/29 04:13:57;;;;;;;8.13;7.32;;;;;;;;;;5010721;28;20193;-88
2023/04/29 04:16:25;;;;;;;8.50;7.65;;;;;;;;;;5012044;28;20201;-87
2023/04/29 04:18:53;;;;;;;8.85;7.95;;;;;;;;;;5008171;28;20351;-87
2023/04/29 04:21:20;;;;;;;8.50;7.65;;;;;;;;;;5011687;28;20205;-87
2023/04/29 04:23:48;;;;;;;7.22;6.57;;;;;;;;;;5011557;28;20320;-87
2023/04/29 04:26:15;;;;;;;8.43;7.60;;;;;;;;;;5008607;28;20201;-87
2023/04/29 04:28:42;;;;;;;8.63;7.82;;;;;;;;;;4994613;28;20197;-87
2023/04/29 04:31:13;;;;;;;8.93;8.00;;;;;;;;;;4997395;28;20204;-87
2023/04/29 04:33:40;;;;;;;9.25;8.35;;;;;;;;;;5014640;28;20208;-87
2023/04/29 04:36:08;;;;;;;10.20;7.95;;;;;;;;;;5013539;28;20197;-87
2023/04/29 04:38:35;;;;;;;9.55;8.30;;;;;;;;;;5009340;28;20313;-87
2023/04/29 04:41:02;;;;;;;9.60;8.70;;;;;;;;;;4991201;28;20201;-87
2023/04/29 04:43:32;;;;;;;10.00;8.17;;;;;;;;;;5012145;28;20319;-87
2023/04/29 04:46:00;;;;;;;12.35;9.88;;;;;;;;;;5014665;28;20223;-87
2023/04/29 04:48:29;;;;;;;9.57;8.57;;;;;;;;;;5012941;28;20231;-87
2023/04/29 04:50:56;;;;;;;9.98;8.75;;;;;;;;;;5015623;28;20205;-87
2023/04/29 04:53:23;;;;;;;9.43;8.40;;;;;;;;;;5012961;28;20209;-87
2023/04/29 04:55:51;;;;;;;11.05;9.95;;;;;;;;;;5011520;28;20219;-87
2023/04/29 04:58:18;;;;;;;11.63;9.68;;;;;;;;;;4982175;28;20225;-87
2023/04/29 05:00:45;;;;;;;10.95;9.82;;;;;;;;;;5013416;28;20208;-87
2023/04/29 05:03:13;;;;;;;9.90;8.90;;;;;;;;;;5010987;28;20197;-87
2023/04/29 05:05:42;;;;;;;11.57;10.37;;;;;;;;;;5015664;28;20205;-87
2023/04/29 05:08:09;;;;;;;9.33;8.37;;;;;;;;;;5013483;28;20212;-88
2023/04/29 05:10:37;;;;;;;11.02;9.77;;;;;;;;;;5009516;28;20200;-87
2023/04/29 05:13:04;;;;;;;11.67;10.20;;;;;;;;;;5013980;28;20201;-87
2023/04/29 05:15:31;;;;;;;10.30;9.20;;;;;;;;;;5011237;28;20205;-87
2023/04/29 05:17:59;;;;;;;10.43;9.32;;;;;;;;;;5011817;28;20268;-86
2023/04/29 05:20:26;;;;;;;8.75;7.95;;;;;;;;;;4999125;28;20205;-87
2023/04/29 05:22:55;;;;;;;10.30;9.30;;;;;;;;;;4999703;28;20207;-87
2023/04/29 05:25:22;;;;;;;10.40;9.30;;;;;;;;;;5013741;28;20205;-87
2023/04/29 05:27:50;;;;;;;9.60;8.67;;;;;;;;;;5011567;28;20215;-87
2023/04/29 05:30:18;;;;;;;11.27;10.07;;;;;;;;;;4997267;28;20201;-87
2023/04/29 05:32:46;;;;;;;10.77;9.67;;;;;;;;;;5010090;28;20209;-87
2023/04/29 05:35:13;;;;;;;10.73;9.63;;;;;;;;;;5006638;28;20213;-87
2023/04/29 05:37:40;;;;;;;10.73;9.33;;;;;;;;;;5004590;28;20229;-87
2023/04/29 05:40:10;;;;;;;12.50;10.73;;;;;;;;;;5016003;28;20213;-87
2023/04/29 05:42:37;;;;;;;14.80;10.80;;;;;;;;;;5012663;28;20257;-86
2023/04/29 05:45:05;;;;;;;11.83;10.57;;;;;;;;;;5012446;28;20213;-87
2023/04/29 05:47:32;;;;;;;10.10;9.10;;;;;;;;;;5015308;28;20220;-86
2023/04/29 05:50:00;;;;;;;11.70;10.43;;;;;;;;;;4985836;28;20263;-87
2023/04/29 05:52:27;;;;;;;10.87;9.77;;;;;;;;;;5014404;28;20201;-87
2023/04/29 05:54:55;;;;;;;10.40;9.30;;;;;;;;;;4994813;28;20228;-88
2023/04/29 05:57:24;;;;;;;11.73;10.20;;;;;;;;;;5012250;28;20259;-87
2023/04/29 05:59:53;;;;;;;12.20;10.50;;;;;;;;;;5002345;28;20296;-87
2023/04/29 06:02:21;;;;;;;13.57;11.33;;;;;;;;;;5013872;28;20219;-87
2023/04/29 06:04:48;;;;;;;12.27;10.97;;;;;;;;;;4991951;28;20213;-87
2023/04/29 06:07:16;;;;;;;12.63;10.47;;;;;;;;;;5013622;28;20206;-86
2023/04/29 06:09:43;;;;;;;11.15;10.05;;;;;;;;;;5011533;28;20263;-86
2023/04/29 06:12:11;;;;;;;14.13;10.90;;;;;;;;;;5015109;28;20216;-86
2023/04/29 06:14:40;;;;;;;12.60;10.73;;;;;;;;;;4978327;28;20208;-86
2023/04/29 06:17:07;;;;;;;11.57;9.93;;;;;;;;;;4998712;28;20215;-86
2023/04/29 06:19:34;;;;;;;11.67;9.40;;;;;;;;;;5014551;28;20229;-86
2023/04/29 06:22:02;;;;;;;10.20;8.50;;;;;;;;;;5015587;28;20208;-86
2023/04/29 06:24:29;;;;;;;11.00;9.30;;;;;;;;;;5014341;28;20201;-86
2023/04/29 06:26:56;;;;;;;9.90;7.83;;;;;;;;;;5002011;28;20237;-86
2023/04/29 06:29:24;;;;;;;10.53;7.63;;;;;;;;;;5005608;28;20200;-86
2023/04/29 06:31:54;;;;;;;10.57;8.13;;;;;;;;;;5012233;28;20288;-86
2023/04/29 06:34:22;;;;;;;8.83;7.87;;;;;;;;;;4992600;28;20207;-86
2023/04/29 06:36:49;;;;;;;8.73;7.80;;;;;;;;;;4990781;28;20295;-86
2023/04/29 06:39:17;;;;;;;10.43;7.37;;;;;;;;;;5007587;28;20255;-86
2023/04/29 06:41:44;;;;;;;8.87;7.13;;;;;;;;;;5013166;28;20205;-86
2023/04/29 06:44:11;;;;;;;7.80;6.77;;;;;;;;;;5009620;28;20201;-86
2023/04/29 06:46:39;;;;;;;8.17;6.30;;;;;;;;;;5013173;28;20205;-86
2023/04/29 06:49:08;;;;;;;7.97;6.13;;;;;;;;;;4995789;28;20314;-86
2023/04/29 06:51:35;;;;;;;7.53;6.17;;;;;;;;;;5012874;28;20231;-86
2023/04/29 06:54:03;;;;;;;7.10;5.87;;;;;;;;;;5014452;28;20271;-86
2023/04/29 06:56:30;;;;;;;8.43;6.50;;;;;;;;;;5008113;28;20200;-88
2023/04/29 06:58:57;;;;;;;7.77;5.83;;;;;;;;;;5007503;28;20274;-89
2023/04/29 07:01:25;;;;;;;6.97;5.87;;;;;;;;;;5007402;28;20211;-90
2023/04/29 07:03:52;;;;;;;6.63;5.50;;;;;;;;;;5010472;28;20201;-90
2023/04/29 07:06:21;;;;;;;6.73;5.87;;;;;;;;;;5013426;28;20208;-87
2023/04/29 07:08:48;;;;;;;7.17;6.10;;;;;;;;;;5008783;28;20203;-87
2023/04/29 07:11:15;;;;;;;7.27;5.87;;;;;;;;;;5007783;28;20292;-87
2023/04/29 07:13:43;;;;;;;8.00;6.07;;;;;;;;;;5008858;28;20219;-87
2023/04/29 07:16:16;;;;;;;6.80;5.90;;;;;;;;;;5011291;28;20239;-87
2023/04/29 07:18:44;;;;;;;7.97;6.20;;;;;;;;;;5011459;28;20220;-90
2023/04/29 07:21:11;;;;;;;6.20;5.60;;;;;;;;;;5011061;28;20216;-89
2023/04/29 07:23:40;;;;;;;6.73;6.03;;;;;;;;;;5008393;28;20236;-89
2023/04/29 07:26:11;;;;;;;7.10;5.80;;;;;;;;;;5012098;28;20205;-88
2023/04/29 07:28:39;;;;;;;7.93;6.37;;;;;;;;;;5011289;28;20206;-88
2023/04/29 07:31:06;;;;;;;8.47;6.93;;;;;;;;;;5012262;28;20209;-88
2023/04/29 07:33:34;;;;;;;7.10;6.40;;;;;;;;;;5009930;28;20197;-89
2023/04/29 07:36:02;;;;;;;9.53;6.90;;;;;;;;;;5008387;28;20203;-88
2023/04/29 07:38:29;;;;;;;8.20;7.00;;;;;;;;;;5009201;28;20221;-88
2023/04/29 07:40:58;;;;;;;6.97;6.27;;;;;;;;;;5010824;28;20205;-90
2023/04/29 07:43:25;;;;;;;7.87;6.87;;;;;;;;;;5006437;28;20228;-87
2023/04/29 07:45:52;;;;;;;7.40;6.63;;;;;;;;;;5004434;28;20193;-89
2023/04/29 07:48:21;;;;;;;7.87;6.90;;;;;;;;;;5010611;28;20213;-88
2023/04/29 07:50:48;;;;;;;7.23;6.50;;;;;;;;;;5014017;28;20311;-87
2023/04/29 07:53:16;;;;;;;9.30;6.80;;;;;;;;;;5008687;28;20208;-90
2023/04/29 07:55:44;;;;;;;8.90;7.30;;;;;;;;;;5012435;28;20288;-88
2023/04/29 07:58:12;;;;;;;7.80;6.90;;;;;;;;;;5011651;28;20200;-89
2023/04/29 08:00:40;;;;;;;8.00;7.20;;;;;;;;;;5009480;28;20264;-89
2023/04/29 08:03:07;;;;;;;8.00;6.63;;;;;;;;;;5008682;28;20215;-87
2023/04/29 08:05:35;;;;;;;7.80;7.00;;;;;;;;;;5009220;28;20212;-88
2023/04/29 08:08:02;;;;;;;7.63;6.70;;;;;;;;;;5009849;28;20300;-89
2023/04/29 08:10:29;;;;;;;8.07;7.10;;;;;;;;;;4990652;28;20209;-93
2023/04/29 08:12:57;;;;;;;7.80;6.80;;;;;;;;;;5005209;28;20201;-90
2023/04/29 08:15:26;;;;;;;8.27;6.77;;;;;;;;;;5008607;28;20213;-88
2023/04/29 08:17:54;;;;;;;8.10;7.30;;;;;;;;;;5009255;28;20292;-89
2023/04/29 08:20:21;;;;;;;8.47;6.60;;;;;;;;;;5009739;28;20229;-90
2023/04/29 08:22:48;;;;;;;10.43;7.07;;;;;;;;;;5009978;28;20204;-90
2023/04/29 08:25:16;;;;;;;8.43;7.30;;;;;;;;;;5008521;28;20272;-89
2023/04/29 08:27:44;;;;;;;7.50;6.70;;;;;;;;;;5006177;28;20205;-90
2023/04/29 08:30:12;;;;;;;7.43;6.67;;;;;;;;;;5009230;28;20212;-90
2023/04/29 08:32:41;;;;;;;7.47;6.47;;;;;;;;;;5001111;28;20236;-90
2023/04/29 08:35:09;;;;;;;8.77;6.63;;;;;;;;;;5002651;28;20292;-90
2023/04/29 08:37:37;;;;;;;8.10;7.17;;;;;;;;;;5006011;28;20205;-90
2023/04/29 08:40:04;;;;;;;8.43;7.53;;;;;;;;;;4999423;28;20324;-90
2023/04/29 08:42:35;;;;;;;8.10;7.13;;;;;;;;;;5008733;28;20241;-90
2023/04/29 08:45:02;;;;;;;7.60;6.80;;;;;;;;;;4998672;28;20209;-90
2023/04/29 08:47:30;;;;;;;8.23;7.07;;;;;;;;;;5008724;28;20216;-90
2023/04/29 08:50:02;;;;;;;8.37;7.17;;;;;;;;;;4998992;28;20225;-90
2023/04/29 08:52:31;;;;;;;6.97;6.20;;;;;;;;;;5012976;28;20213;-90
2023/04/29 08:54:58;;;;;;;7.85;6.65;;;;;;;;;;4990019;28;20308;-90
2023/04/29 08:57:26;;;;;;;7.80;6.90;;;;;;;;;;5004017;28;20209;-90
2023/04/29 08:59:53;;;;;;;7.27;6.57;;;;;;;;;;5011491;28;20283;-90
2023/04/29 09:02:21;;;;;;;7.50;6.70;;;;;;;;;;4989156;28;20212;-91
2023/04/29 09:04:54;;;;;;;7.70;6.90;;;;;;;;;;5010903;28;20216;-90
2023/04/29 09:07:23;;;;;;;8.07;6.83;;;;;;;;;;5016782;28;20259;-90
2023/04/29 09:09:52;;;;;;;6.47;5.87;;;;;;;;;;5011360;28;20287;-90
2023/04/29 09:12:19;;;;;;;7.13;6.30;;;;;;;;;;5002271;28;20209;-90
2023/04/29 09:14:47;;;;;;;7.00;6.20;;;;;;;;;;5014159;28;20214;-90
2023/04/29 09:17:15;;;;;;;7.63;6.33;;;;;;;;;;4987218;28;20212;-90
2023/04/29 09:19:45;;;;;;;6.33;5.73;;;;;;;;;;5007671;28;20231;-90
2023/04/29 09:22:12;;;;;;;8.17;5.60;;;;;;;;;;5012894;28;20208;-90
2023/04/29 09:24:42;;;;;;;5.87;5.23;;;;;;;;;;5009216;28;20270;-90
2023/04/29 09:27:10;;;;;;;5.90;5.30;;;;;;;;;;5009678;28;20296;-90
2023/04/29 09:29:38;;;;;;;7.17;5.30;;;;;;;;;;4994986;28;20219;-90
2023/04/29 09:32:20;;;;;;;5.43;4.93;;;;;;;;;;4994483;28;20220;-90
2023/04/29 09:34:47;;;;;;;7.10;6.10;;;;;;;;;;5011870;28;20200;-90
2023/04/29 09:37:25;;;;;;;6.57;5.97;;;;;;;;;;4993080;28;20213;-90
2023/04/29 09:39:54;;;;;;;7.37;6.07;;;;;;;;;;5015268;28;20229;-90
2023/04/29 09:42:22;;;;;;;6.33;5.53;;;;;;;;;;5005776;28;20237;-90
2023/04/29 09:44:50;;;;;;;6.87;5.60;;;;;;;;;;5016174;28;20209;-90
2023/04/29 09:47:18;;;;;;;6.10;4.70;;;;;;;;;;5011741;28;20208;-91
2023/04/29 09:49:45;;;;;;;5.50;4.83;;;;;;;;;;5007641;28;20208;-90
2023/04/29 09:52:15;;;;;;;5.83;4.80;;;;;;;;;;5008170;28;20267;-90
2023/04/29 09:54:43;;;;;;;5.23;4.70;;;;;;;;;;5004530;28;20215;-90
2023/04/29 09:57:13;;;;;;;5.53;4.88;;;;;;;;;;5007382;28;20214;-90
2023/04/29 09:59:42;;;;;;;5.47;4.70;;;;;;;;;;5011938;28;20292;-90
2023/04/29 10:02:14;;;;;;;5.47;4.97;;;;;;;;;;5009798;28;20197;-90
2023/04/29 10:04:42;;;;;;;5.45;4.32;;;;;;;;;;5013913;28;20213;-91
2023/04/29 10:07:09;;;;;;;4.82;4.40;;;;;;;;;;5012126;28;20213;-92
2023/04/29 10:09:38;;;;;;;6.43;5.30;;;;;;;;;;5009762;28;20209;-90
2023/04/29 10:12:06;;;;;;;5.65;5.07;;;;;;;;;;5013413;28;20213;-96
2023/04/29 10:14:38;;;;;;;5.80;5.00;;;;;;;;;;5011086;28;20274;-96
2023/04/29 10:17:11;;;;;;;6.30;5.28;;;;;;;;;;5012464;28;20208;-93
2023/04/29 10:19:40;;;;;;;5.43;4.93;;;;;;;;;;5008415;28;20230;-92
2023/04/29 10:22:09;;;;;;;6.20;4.37;;;;;;;;;;5013311;28;20299;-92
2023/04/29 10:24:38;;;;;;;4.55;4.10;;;;;;;;;;5010663;28;20276;-92
2023/04/29 10:27:07;;;;;;;5.50;4.90;;;;;;;;;;5010012;28;20224;-92
2023/04/29 10:29:37;;;;;;;6.82;4.85;;;;;;;;;;5011066;28;20356;-91
2023/04/29 10:32:05;;;;;;;6.07;5.22;;;;;;;;;;5009702;28;20216;-91
2023/04/29 10:34:33;;;;;;;7.68;6.40;;;;;;;;;;5014372;28;20211;-92
2023/04/29 10:37:00;;;;;;;5.75;5.13;;;;;;;;;;4988362;28;20232;-92
2023/04/29 10:39:32;;;;;;;7.47;6.63;;;;;;;;;;5011935;28;20236;-92
2023/04/29 10:42:01;;;;;;;8.25;5.93;;;;;;;;;;5012095;28;20243;-92
2023/04/29 10:44:29;;;;;;;6.70;5.77;;;;;;;;;;4989106;28;20220;-92
2023/04/29 10:47:14;;;;;;;6.63;5.90;;;;;;;;;;5013981;28;20197;-91
2023/04/29 10:50:02;;;;;;;6.88;5.55;;;;;;;;;;5012367;28;20205;-93
2023/04/29 10:52:29;;;;;;;5.97;5.38;;;;;;;;;;5012879;28;20201;-92
2023/04/29 10:55:03;;;;;;;5.70;5.05;;;;;;;;;;5011981;28;20203;-93
2023/04/29 10:57:30;;;;;;;7.95;5.05;;;;;;;;;;5012467;28;20193;-91
2023/04/29 10:59:58;;;;;;;5.57;5.00;;;;;;;;;;5008622;28;20220;-91
2023/04/29 11:02:26;;;;;;;4.85;4.45;;;;;;;;;;5014199;28;20209;-89
2023/04/29 11:05:12;;;;;;;4.43;4.03;;;;;;;;;;5008165;28;20211;-92
2023/04/29 11:07:40;;;;;;;4.45;4.05;;;;;;;;;;5008257;28;20207;-92
2023/04/29 11:10:08;;;;;;;5.13;4.15;;;;;;;;;;4995231;28;20303;-94
2023/04/29 11:12:36;;;;;;;4.28;3.92;;;;;;;;;;5011523;28;20200;-92
2023/04/29 11:15:04;;;;;;;4.82;4.22;;;;;;;;;;5008056;28;20224;-93
2023/04/29 11:17:36;;;;;;;4.63;4.00;;;;;;;;;;5007636;28;20205;-92
2023/04/29 11:20:03;;;;;;;4.60;3.97;;;;;;;;;;5011424;28;20228;-93
2023/04/29 11:22:33;;;;;;;39.70;7.05;;;;;;;;;;5012283;28;20204;-92
2023/04/29 11:25:01;;;;;;;11.85;4.03;;;;;;;;;;5013798;28;20208;-93
2023/04/29 11:27:31;;;;;;;3.88;3.58;;;;;;;;;;5008440;28;20212;-91
2023/04/29 11:29:59;;;;;;;4.38;3.90;;;;;;;;;;5012790;28;20312;-96
2023/04/29 11:32:27;;;;;;;6.07;3.30;;;;;;;;;;5005747;28;20201;-95
2023/04/29 11:34:56;;;;;;;5.18;3.70;;;;;;;;;;5005753;28;20267;-95
2023/04/29 11:37:24;;;;;;;7.35;3.67;;;;;;;;;;4995477;28;20212;-96
2023/04/29 11:39:59;;;;;;;4.45;4.10;;;;;;;;;;5006035;28;20236;-95
2023/04/29 11:42:27;;;;;;;4.60;4.20;;;;;;;;;;5012767;28;20224;-93
2023/04/29 11:44:55;;;;;;;4.53;4.13;;;;;;;;;;5012973;28;20215;-94
2023/04/29 11:47:26;;;;;;;3.78;3.42;;;;;;;;;;5009830;28;20204;-96
2023/04/29 11:49:54;;;;;;;4.07;3.78;;;;;;;;;;5009592;28;20204;-94
2023/04/29 11:52:21;;;;;;;3.35;3.05;;;;;;;;;;5012012;28;20289;-96
2023/04/29 11:54:49;;;;;;;3.63;3.13;;;;;;;;;;5008496;28;20261;-95
2023/04/29 11:57:18;;;;;;;3.30;2.95;;;;;;;;;;4994437;28;20287;-95
2023/04/29 11:59:45;;;;;;;2.85;2.63;;;;;;;;;;5013350;28;20255;-96
2023/04/29 12:02:13;;;;;;;2.58;2.40;;;;;;;;;;5012091;28;20197;-96
2023/04/29 12:04:46;;;;;;;3.03;2.40;;;;;;;;;;5012330;28;20193;-93
2023/04/29 12:07:15;;;;;;;2.70;2.50;;;;;;;;;;4998016;28;20204;-94
2023/04/29 12:09:43;;;;;;;3.53;2.10;;;;;;;;;;5014237;28;20212;-93
2023/04/29 12:12:16;;;;;;;39.65;5.22;;;;;;;;;;5011966;28;20201;-95
2023/04/29 12:17:26;;;;;;;4.75;2.33;;;;;;;;;;5014870;28;20239;-96
2023/04/29 12:19:53;;;;;;;1.95;1.85;;;;;;;;;;4998585;28;20213;-95
2023/04/29 12:22:21;;;;;;;5.10;1.92;;;;;;;;;;5011828;28;20223;-95
2023/04/29 12:24:49;;;;;;;1.98;1.65;;;;;;;;;;5013482;28;20204;-93
2023/04/29 12:27:17;;;;;;;1.88;1.60;;;;;;;;;;5007327;28;20636;-96
2023/04/29 12:29:47;;;;;;;1.90;1.80;;;;;;;;;;5012247;28;20461;-96
2023/04/29 12:32:17;;;;;;;2.03;1.92;;;;;;;;;;5013879;28;20200;-96
2023/04/29 12:34:47;;;;;;;2.03;1.92;;;;;;;;;;5017603;28;20269;-96
2023/04/29 12:37:15;;;;;;;1.90;1.80;;;;;;;;;;5004873;28;20213;-96
2023/04/29 12:39:43;;;;;;;2.28;2.08;;;;;;;;;;5015379;28;20200;-96
2023/04/29 12:42:15;;;;;;;26.55;4.10;;;;;;;;;;5014702;23;20217;-70
2023/04/29 12:44:42;;;;;;;7.68;2.83;;;;;;;;;;5038263;28;20212;-73
2023/04/29 12:47:12;;;;;;;4.18;3.00;;;;;;;;;;5042303;28;20208;-73
2023/04/29 12:49:41;;;;;;;2.70;2.50;;;;;;;;;;5047064;28;20230;-70
2023/04/29 12:52:09;;;;;;;2.75;2.53;;;;;;;;;;5036844;28;20227;-70
2023/04/29 12:54:36;;;;;;;2.95;2.60;;;;;;;;;;5047300;28;20199;-71
2023/04/29 12:57:04;;;;;;;2.83;2.25;;;;;;;;;;5040983;28;20325;-71
2023/04/29 12:59:31;;;;;;;2.45;2.30;;;;;;;;;;5042551;28;20211;-71
2023/04/29 13:01:58;;;;;;;2.40;2.30;;;;;;;;;;5044781;28;20195;-71
2023/04/29 13:04:26;;;;;;;2.40;2.28;;;;;;;;;;5050379;28;20203;-71
2023/04/29 13:06:59;;;;;;;2.50;2.25;;;;;;;;;;5046763;28;20211;-71
2023/04/29 13:09:26;;;;;;;2.88;2.67;;;;;;;;;;5046888;28;20204;-70
2023/04/29 13:11:53;;;;;;;2.08;1.98;;;;;;;;;;5045374;28;20223;-70
2023/04/29 13:14:20;;;;;;;2.45;2.35;;;;;;;;;;5044323;28;20211;-71
2023/04/29 13:16:48;;;;;;;2.40;2.20;;;;;;;;;;5043154;28;20203;-70
2023/04/29 13:19:15;;;;;;;2.40;2.20;;;;;;;;;;5042269;28;20203;-70
2023/04/29 13:21:45;;;;;;;2.70;2.50;;;;;;;;;;5046241;28;20195;-70
2023/04/29 13:24:12;;;;;;;3.35;3.15;;;;;;;;;;5040103;28;20302;-71
2023/04/29 13:26:40;;;;;;;3.70;3.40;;;;;;;;;;5042061;28;20199;-70
2023/04/29 13:29:07;;;;;;;3.85;3.10;;;;;;;;;;5040214;28;20298;-70
2023/04/29 13:31:34;;;;;;;3.50;3.20;;;;;;;;;;5040682;28;20227;-71
2023/04/29 13:34:01;;;;;;;3.22;2.92;;;;;;;;;;5045389;28;20199;-71
2023/04/29 13:36:29;;;;;;;3.90;3.60;;;;;;;;;;5045233;28;20207;-70
2023/04/29 13:38:57;;;;;;;4.50;4.10;;;;;;;;;;5046065;28;20204;-71
2023/04/29 13:41:25;;;;;;;3.92;3.63;;;;;;;;;;5051192;28;20195;-69
2023/04/29 13:43:52;;;;;;;3.53;3.22;;;;;;;;;;5034849;28;20297;-70
2023/04/29 13:46:19;;;;;;;4.20;3.80;;;;;;;;;;5045715;28;20207;-67
2023/04/29 13:48:46;;;;;;;3.17;2.97;;;;;;;;;;5046316;28;20203;-67
2023/04/29 13:51:13;;;;;;;3.10;2.90;;;;;;;;;;5047770;28;20212;-68
2023/04/29 13:53:41;;;;;;;4.00;3.10;;;;;;;;;;5041349;28;20208;-71
2023/04/29 13:56:10;;;;;;;3.33;3.03;;;;;;;;;;5042778;28;20204;-71
2023/04/29 13:58:37;;;;;;;3.38;3.10;;;;;;;;;;5036706;28;20204;-70
2023/04/29 14:01:04;;;;;;;3.47;3.17;;;;;;;;;;5052065;28;20195;-69
2023/04/29 14:03:31;;;;;;;3.20;3.00;;;;;;;;;;5049894;28;20196;-69
2023/04/29 14:05:58;;;;;;;3.80;3.50;;;;;;;;;;5048921;28;20211;-69
2023/04/29 14:08:26;;;;;;;3.60;3.30;;;;;;;;;;5044230;28;20222;-69
2023/04/29 14:10:53;;;;;;;3.75;3.45;;;;;;;;;;5043885;28;20216;-69
2023/04/29 14:13:21;;;;;;;4.07;3.13;;;;;;;;;;5043658;28;20211;-69
2023/04/29 14:15:49;;;;;;;3.15;2.95;;;;;;;;;;5040577;28;20201;-69
2023/04/29 14:18:16;;;;;;;3.72;3.42;;;;;;;;;;5045477;28;20203;-69
2023/04/29 14:20:43;;;;;;;4.50;3.70;;;;;;;;;;5043765;28;20203;-70
2023/04/29 14:23:10;;;;;;;3.80;3.50;;;;;;;;;;5041645;28;20215;-70
2023/04/29 14:25:37;;;;;;;3.42;3.22;;;;;;;;;;5044420;28;20199;-70
2023/04/29 14:28:04;;;;;;;4.40;4.07;;;;;;;;;;5042893;28;20204;-69
2023/04/29 14:30:33;;;;;;;4.07;3.53;;;;;;;;;;5045395;28;20230;-69
2023/04/29 14:33:00;;;;;;;4.75;4.35;;;;;;;;;;5040927;28;20294;-69
2023/04/29 14:35:27;;;;;;;4.13;3.83;;;;;;;;;;5046767;28;20208;-70
2023/04/29 14:37:54;;;;;;;4.20;3.80;;;;;;;;;;5038494;28;20211;-70
2023/04/29 14:40:22;;;;;;;8.27;7.57;;;;;;;;;;5040706;28;20208;-70
2023/04/29 14:42:49;;;;;;;6.15;5.60;;;;;;;;;;5043577;28;20227;-69
2023/04/29 14:45:17;;;;;;;4.43;4.05;;;;;;;;;;5042245;28;20203;-69
2023/04/29 14:47:45;;;;;;;4.00;3.60;;;;;;;;;;5039261;28;20200;-69
2023/04/29 14:50:12;;;;;;;3.88;3.50;;;;;;;;;;5037909;28;20227;-69